Millstone, Connecticut
Current Conditions -  °F | °C
As of 4:56 AM on Tuesday 27 Jan 2015 (Local Time) from KGON Reporting Station
Moderate Fog Moderate Fog  
Wind Chill: -2°   Ceiling: 600
Heat Index: 17°   Visibility: 0.5mi
Dew Point: 15°   Wind: 29mph
Humidity: 92%   Direction: 360°N
Pressure: 29.5"   Gusts: 41mph
Location:  41.3583°N, 72.1558°W
Report Text: KGON 270956Z AUTO 36025G36KT 1/2SM R05/2600V3000FT FZFG VV006 M08/M09 A2950 RMK AO2 SLP990 T10831094 PWINO FZRANO $
Loading
Personal Weather Stations






























Interactive Weather Map New forecast layout! Learn more

10-Day Weather Forecast

Advertisements
Track Severe Weather on mobile